createdAt,value
2022-11-29T00:02:37.148Z,9.90
2022-11-29T00:05:40.064Z,11.27
2022-11-29T00:08:43.219Z,10.60
2022-11-29T00:12:05.395Z,9.63
2022-11-29T00:15:11.064Z,12.48
2022-11-29T00:18:13.932Z,12.70
2022-11-29T00:21:16.518Z,11.33
2022-11-29T00:24:20.062Z,8.10
2022-11-29T00:27:22.734Z,12.65
2022-11-29T00:30:25.896Z,13.02
2022-11-29T00:33:29.312Z,9.45
2022-11-29T00:36:32.475Z,12.77
2022-11-29T00:39:35.027Z,13.90
2022-11-29T00:42:40.408Z,12.63
2022-11-29T00:45:43.054Z,12.57
2022-11-29T00:48:46.490Z,12.27
2022-11-29T00:51:49.149Z,11.90
2022-11-29T00:54:52.012Z,13.30
2022-11-29T00:57:54.668Z,11.98
2022-11-29T01:00:58.292Z,10.85
2022-11-29T01:04:04.423Z,14.00
2022-11-29T01:07:07.293Z,12.27
2022-11-29T01:10:10.347Z,14.43
2022-11-29T01:13:14.526Z,13.20
2022-11-29T01:16:17.617Z,13.65
2022-11-29T01:19:20.484Z,12.10
2022-11-29T01:22:23.139Z,11.60
2022-11-29T01:25:26.254Z,11.70
2022-11-29T01:28:29.133Z,12.50
2022-11-29T01:31:38.080Z,8.77
2022-11-29T01:34:41.180Z,9.68
2022-11-29T01:37:44.334Z,7.97
2022-11-29T01:40:58.279Z,9.50
2022-11-29T01:44:05.130Z,10.35
2022-11-29T01:47:11.039Z,9.15
2022-11-29T01:50:15.452Z,9.02
2022-11-29T01:53:18.256Z,17.00
2022-11-29T01:56:22.336Z,13.00
2022-11-29T01:59:28.480Z,13.15
2022-11-29T02:02:35.995Z,10.98
2022-11-29T02:05:42.660Z,11.80
2022-11-29T02:08:45.334Z,10.77
2022-11-29T02:12:17.553Z,7.03
2022-11-29T02:16:03.502Z,8.50
2022-11-29T02:19:50.411Z,8.30
2022-11-29T02:23:08.049Z,11.07
2022-11-29T02:26:32.480Z,10.03
2022-11-29T02:30:12.070Z,12.70
2022-11-29T02:33:36.230Z,9.40
2022-11-29T02:36:46.190Z,8.70
2022-11-29T02:40:01.484Z,8.13
2022-11-29T02:43:41.426Z,7.07
2022-11-29T02:47:16.170Z,11.90
2022-11-29T02:50:29.791Z,8.55
2022-11-29T02:53:38.501Z,12.40
2022-11-29T02:56:47.377Z,8.90
2022-11-29T03:00:02.736Z,9.60
2022-11-29T03:03:24.113Z,12.32
2022-11-29T03:07:04.779Z,14.13
2022-11-29T03:10:22.685Z,6.87
2022-11-29T03:13:34.285Z,9.82
2022-11-29T03:16:43.334Z,11.40
2022-11-29T03:19:47.745Z,12.05
2022-11-29T03:23:09.185Z,7.40
2022-11-29T03:26:19.090Z,9.98
2022-11-29T03:29:36.706Z,12.07
2022-11-29T03:32:57.532Z,11.13
2022-11-29T03:36:24.721Z,11.63
2022-11-29T03:39:42.862Z,8.23
2022-11-29T03:42:53.544Z,8.10
2022-11-29T03:46:03.480Z,6.00
2022-11-29T03:49:36.040Z,9.17
2022-11-29T03:52:50.667Z,7.80
2022-11-29T03:55:59.110Z,10.73
2022-11-29T03:59:26.535Z,11.52
2022-11-29T04:02:56.935Z,9.18
2022-11-29T04:06:18.493Z,6.10
2022-11-29T04:09:42.794Z,10.45
2022-11-29T04:13:04.321Z,11.75
2022-11-29T04:16:19.147Z,11.07
2022-11-29T04:19:52.641Z,10.25
2022-11-29T04:23:23.282Z,11.73
2022-11-29T04:26:47.756Z,7.93
2022-11-29T04:30:08.272Z,11.50
2022-11-29T04:33:47.710Z,8.55
2022-11-29T04:36:52.955Z,10.13
2022-11-29T04:40:25.172Z,6.27
2022-11-29T04:43:36.550Z,6.97
2022-11-29T04:47:16.859Z,9.88
2022-11-29T04:50:27.030Z,11.65
2022-11-29T04:53:29.918Z,11.55
2022-11-29T04:57:06.658Z,11.00
2022-11-29T05:00:12.489Z,11.65
2022-11-29T05:03:28.056Z,10.80
2022-11-29T05:06:39.706Z,11.65
2022-11-29T05:10:04.881Z,10.45
2022-11-29T05:13:18.505Z,10.07
2022-11-29T05:16:30.328Z,5.40
2022-11-29T05:19:58.729Z,8.23
2022-11-29T05:23:08.412Z,10.85
2022-11-29T05:26:16.575Z,9.85
2022-11-29T05:29:49.091Z,7.80
2022-11-29T05:33:10.328Z,12.00
2022-11-29T05:36:43.822Z,8.77
2022-11-29T05:39:55.792Z,10.27
2022-11-29T05:43:18.638Z,10.52
2022-11-29T05:46:38.982Z,9.50
2022-11-29T05:50:11.181Z,9.18
2022-11-29T05:53:32.916Z,11.18
2022-11-29T05:56:57.687Z,7.25
2022-11-29T06:00:05.621Z,7.55
2022-11-29T06:03:24.835Z,10.10
2022-11-29T06:07:08.432Z,14.68
2022-11-29T06:10:19.962Z,6.87
2022-11-29T06:14:01.568Z,11.57
2022-11-29T06:17:10.089Z,12.27
2022-11-29T06:20:33.167Z,8.05
2022-11-29T06:23:53.969Z,10.32
2022-11-29T06:27:38.927Z,12.70
2022-11-29T06:31:14.706Z,15.90
2022-11-29T06:34:40.521Z,15.10
2022-11-29T06:37:49.207Z,16.87
2022-11-29T06:40:56.030Z,11.50
2022-11-29T06:44:03.424Z,10.55
2022-11-29T06:47:32.476Z,10.57
2022-11-29T06:51:01.740Z,12.60
2022-11-29T06:54:11.358Z,13.82
2022-11-29T06:57:55.851Z,13.10
2022-11-29T07:01:26.136Z,13.82
2022-11-29T07:05:08.037Z,14.48
2022-11-29T07:08:23.484Z,12.47
2022-11-29T07:11:26.783Z,8.33
2022-11-29T07:14:29.993Z,13.45
2022-11-29T07:17:42.673Z,11.05
2022-11-29T07:20:48.460Z,13.95
2022-11-29T07:24:03.208Z,13.50
2022-11-29T07:27:18.640Z,15.87
2022-11-29T07:30:29.690Z,12.85
2022-11-29T07:34:03.651Z,12.13
2022-11-29T07:37:40.134Z,11.93
2022-11-29T07:40:49.601Z,5.40
2022-11-29T07:44:01.024Z,11.47
2022-11-29T07:47:04.379Z,12.05
2022-11-29T07:50:08.054Z,12.95
2022-11-29T07:53:17.553Z,13.98
2022-11-29T07:56:20.195Z,13.33
2022-11-29T07:59:23.082Z,11.00
2022-11-29T08:02:32.180Z,13.05
2022-11-29T08:05:36.222Z,13.10
2022-11-29T08:08:43.679Z,14.65
2022-11-29T08:11:49.016Z,13.07
2022-11-29T08:14:51.674Z,12.70
2022-11-29T08:17:54.712Z,12.15
2022-11-29T08:20:57.259Z,11.85
2022-11-29T08:24:00.240Z,12.60
2022-11-29T08:27:04.375Z,13.20
2022-11-29T08:30:08.187Z,13.50
2022-11-29T08:33:12.198Z,13.82
2022-11-29T08:36:18.086Z,14.10
2022-11-29T08:39:20.701Z,15.10
2022-11-29T08:42:23.950Z,15.00
2022-11-29T08:45:26.652Z,14.40
2022-11-29T08:48:29.598Z,14.57
2022-11-29T08:51:32.225Z,12.50
2022-11-29T08:54:36.550Z,12.77
2022-11-29T08:57:40.746Z,12.00
2022-11-29T09:00:47.278Z,13.00
2022-11-29T09:04:07.251Z,14.05
2022-11-29T09:07:12.408Z,11.63
2022-11-29T09:10:15.032Z,10.82
2022-11-29T09:13:18.367Z,12.50
2022-11-29T09:16:25.619Z,10.50
2022-11-29T09:19:28.818Z,13.23
2022-11-29T09:22:31.701Z,13.80
2022-11-29T09:25:34.598Z,13.77
2022-11-29T09:28:37.832Z,13.30
2022-11-29T09:31:40.830Z,10.02
2022-11-29T09:34:43.622Z,13.45
2022-11-29T09:37:46.823Z,12.55
2022-11-29T09:40:56.234Z,13.27
2022-11-29T09:44:21.622Z,12.23
2022-11-29T09:47:42.647Z,11.40
2022-11-29T09:50:54.255Z,13.25
2022-11-29T09:54:09.300Z,11.82
2022-11-29T09:57:14.251Z,13.40
2022-11-29T10:00:20.175Z,13.93
2022-11-29T10:03:25.825Z,12.52
2022-11-29T10:06:40.598Z,10.82
2022-11-29T10:09:52.129Z,11.80
2022-11-29T10:13:16.007Z,12.70
2022-11-29T10:16:34.117Z,12.40
2022-11-29T10:19:54.301Z,11.90
2022-11-29T10:23:09.672Z,10.27
2022-11-29T10:26:13.439Z,14.38
2022-11-29T10:29:17.229Z,11.70
2022-11-29T10:32:21.583Z,10.60
2022-11-29T10:35:25.201Z,21.37
2022-11-29T10:38:31.073Z,13.62
2022-11-29T10:41:35.877Z,18.33
2022-11-29T10:44:38.459Z,13.60
2022-11-29T10:47:41.680Z,14.47
2022-11-29T10:50:48.657Z,11.85
2022-11-29T10:53:54.887Z,11.43
2022-11-29T10:57:00.290Z,11.73
2022-11-29T11:00:11.697Z,12.50
2022-11-29T11:03:27.536Z,12.40
2022-11-29T11:06:52.394Z,11.57
2022-11-29T11:09:57.971Z,12.82
2022-11-29T11:13:08.298Z,11.45
2022-11-29T11:16:17.991Z,11.13
2022-11-29T11:19:32.545Z,11.93
2022-11-29T11:22:39.968Z,11.40
2022-11-29T11:25:42.984Z,11.05
2022-11-29T11:28:59.753Z,10.80
2022-11-29T11:32:04.902Z,10.63
2022-11-29T11:35:23.079Z,12.03
2022-11-29T11:38:26.127Z,11.82
2022-11-29T11:41:56.998Z,11.27
2022-11-29T11:45:01.213Z,11.38
2022-11-29T11:48:14.505Z,12.00
2022-11-29T11:51:24.582Z,11.80
2022-11-29T11:54:29.863Z,13.07
2022-11-29T11:57:33.000Z,13.50
2022-11-29T12:01:06.415Z,10.85
2022-11-29T12:04:23.905Z,12.60
2022-11-29T12:11:15.725Z,11.63
2022-11-29T12:14:30.427Z,12.23
2022-11-29T12:18:02.629Z,22.95
2022-11-29T12:21:27.731Z,12.63
2022-11-29T12:24:39.249Z,12.83
2022-11-29T12:27:41.902Z,13.68
2022-11-29T12:31:00.037Z,13.90
2022-11-29T12:34:33.613Z,15.32
2022-11-29T12:37:56.383Z,13.10
2022-11-29T12:41:26.170Z,15.07
2022-11-29T12:45:04.168Z,14.10
2022-11-29T12:48:19.160Z,14.25
2022-11-29T12:51:34.906Z,13.60
2022-11-29T12:55:08.328Z,12.57
2022-11-29T12:58:19.159Z,10.37
2022-11-29T13:01:40.038Z,8.70
2022-11-29T13:04:55.039Z,7.97
2022-11-29T13:08:33.640Z,8.75
2022-11-29T13:11:41.252Z,8.33
2022-11-29T13:15:00.053Z,8.57
2022-11-29T13:18:15.905Z,6.75
2022-11-29T13:21:34.908Z,8.02
2022-11-29T13:24:49.308Z,8.35
2022-11-29T13:28:00.384Z,7.03
2022-11-29T13:31:08.441Z,9.20
2022-11-29T13:34:42.822Z,9.55
2022-11-29T13:38:01.311Z,7.87
2022-11-29T13:41:28.900Z,8.02
2022-11-29T13:44:48.003Z,8.67
2022-11-29T13:47:58.874Z,8.27
2022-11-29T13:51:37.815Z,8.13
2022-11-29T13:54:40.425Z,17.75
2022-11-29T13:58:17.484Z,16.27
2022-11-29T14:01:21.859Z,13.77
2022-11-29T14:04:46.085Z,12.27
2022-11-29T14:08:26.735Z,12.02
2022-11-29T14:11:50.740Z,10.80
2022-11-29T14:15:24.627Z,9.82
2022-11-29T14:18:36.762Z,10.13
2022-11-29T14:22:07.359Z,10.23
2022-11-29T14:28:47.178Z,11.38
2022-11-29T14:31:51.938Z,11.85
2022-11-29T14:35:09.998Z,12.03
2022-11-29T14:38:31.256Z,16.83
2022-11-29T14:41:52.312Z,14.20
2022-11-29T14:45:00.822Z,11.98
2022-11-29T14:48:03.678Z,10.55
2022-11-29T14:51:09.663Z,13.27
2022-11-29T14:54:18.523Z,19.97
2022-11-29T14:58:06.184Z,21.83
2022-11-29T15:01:11.013Z,18.60
2022-11-29T15:04:14.520Z,19.77
2022-11-29T15:07:23.471Z,27.10
2022-11-29T15:10:31.466Z,25.80
2022-11-29T15:13:37.078Z,29.15
2022-11-29T15:17:04.483Z,31.27
2022-11-29T15:20:20.031Z,29.25
2022-11-29T15:23:23.057Z,24.13
2022-11-29T15:26:25.583Z,27.37
2022-11-29T15:29:30.416Z,27.33
2022-11-29T15:32:33.567Z,26.48
2022-11-29T15:35:38.449Z,29.55
2022-11-29T15:39:08.518Z,26.33
2022-11-29T15:42:13.742Z,27.73
2022-11-29T15:45:35.258Z,30.25
2022-11-29T15:48:38.328Z,24.52
2022-11-29T15:51:41.481Z,23.65
2022-11-29T15:54:51.581Z,25.23
2022-11-29T15:57:57.884Z,27.30
2022-11-29T16:01:02.355Z,26.17
2022-11-29T16:04:05.815Z,26.12
2022-11-29T16:07:08.707Z,25.42
2022-11-29T16:10:16.844Z,28.17
2022-11-29T16:13:34.364Z,27.90
2022-11-29T16:16:42.225Z,26.17
2022-11-29T16:19:45.062Z,30.30
2022-11-29T16:23:04.762Z,41.28
2022-11-29T16:26:13.662Z,36.43
2022-11-29T16:29:38.360Z,37.53
2022-11-29T16:32:44.547Z,80.18
2022-11-29T16:35:48.535Z,35.55
2022-11-29T16:38:54.831Z,44.83
2022-11-29T16:42:12.987Z,47.13
2022-11-29T16:45:35.255Z,41.50
2022-11-29T16:51:59.158Z,60.97
2022-11-29T16:55:02.491Z,50.78
2022-11-29T16:58:05.220Z,36.93
2022-11-29T17:01:19.832Z,46.63
2022-11-29T17:04:23.895Z,63.78
2022-11-29T17:07:35.403Z,56.30
2022-11-29T17:10:38.478Z,53.03
2022-11-29T17:13:41.475Z,65.50
2022-11-29T17:16:47.781Z,57.72
2022-11-29T17:19:50.695Z,68.28
2022-11-29T17:22:55.537Z,59.92
2022-11-29T17:25:59.868Z,55.78
2022-11-29T17:29:02.485Z,54.70
2022-11-29T17:32:05.615Z,47.90
2022-11-29T17:35:08.798Z,54.38
2022-11-29T17:38:11.752Z,49.53
2022-11-29T17:41:18.398Z,49.80
2022-11-29T17:44:21.725Z,44.13
2022-11-29T17:47:24.679Z,42.47
2022-11-29T17:50:29.304Z,46.17
2022-11-29T17:53:33.637Z,41.70
2022-11-29T17:56:37.360Z,41.92
2022-11-29T17:59:40.377Z,35.03
2022-11-29T18:02:44.831Z,33.30
2022-11-29T18:05:48.030Z,35.67
2022-11-29T18:08:54.089Z,36.60
2022-11-29T18:12:00.566Z,33.10
2022-11-29T18:15:03.748Z,35.90
2022-11-29T18:18:06.804Z,32.45
2022-11-29T18:21:11.918Z,28.33
2022-11-29T18:24:15.297Z,27.52
2022-11-29T18:27:19.948Z,27.35
2022-11-29T18:30:23.496Z,24.47
2022-11-29T18:33:27.449Z,23.80
2022-11-29T18:36:33.804Z,24.23
2022-11-29T18:39:36.936Z,24.20
2022-11-29T18:42:40.440Z,13.82
2022-11-29T18:45:43.516Z,19.90
2022-11-29T18:48:48.319Z,22.77
2022-11-29T18:51:52.508Z,21.87
2022-11-29T18:54:56.291Z,23.23
2022-11-29T18:57:58.985Z,24.58
2022-11-29T19:01:17.245Z,23.57
2022-11-29T19:04:22.122Z,25.23
2022-11-29T19:07:27.758Z,22.92
2022-11-29T19:10:32.604Z,22.70
2022-11-29T19:13:39.851Z,22.60
2022-11-29T19:16:45.633Z,19.63
2022-11-29T19:19:49.183Z,20.65
2022-11-29T19:22:56.096Z,21.87
2022-11-29T19:26:10.269Z,26.70
2022-11-29T19:29:15.016Z,28.77
2022-11-29T19:32:19.184Z,31.73
2022-11-29T19:35:24.470Z,31.40
2022-11-29T19:38:28.999Z,28.10
2022-11-29T19:41:37.293Z,29.02
2022-11-29T19:45:15.220Z,28.90
2022-11-29T19:48:07.348Z,26.00
2022-11-29T19:51:13.528Z,26.70
2022-11-29T19:54:16.582Z,26.75
2022-11-29T19:57:20.100Z,24.87
2022-11-29T20:00:23.452Z,29.33
2022-11-29T20:03:26.896Z,27.87
2022-11-29T20:06:40.049Z,29.77
2022-11-29T20:09:43.663Z,28.75
2022-11-29T20:12:46.842Z,29.08
2022-11-29T20:15:50.445Z,30.20
2022-11-29T20:18:54.479Z,26.97
2022-11-29T20:21:58.044Z,30.00
2022-11-29T20:25:02.638Z,30.12
2022-11-29T20:28:07.986Z,28.75
2022-11-29T20:31:18.447Z,29.30
2022-11-29T20:34:22.075Z,28.77
2022-11-29T20:37:38.386Z,27.73
2022-11-29T20:41:11.713Z,29.83
2022-11-29T20:44:20.263Z,25.73
2022-11-29T20:47:33.078Z,24.23
2022-11-29T20:50:38.689Z,24.17
2022-11-29T20:53:44.457Z,22.00
2022-11-29T20:56:47.437Z,22.00
2022-11-29T20:59:50.893Z,22.55
2022-11-29T21:02:55.238Z,23.17
2022-11-29T21:06:04.242Z,22.03
2022-11-29T21:09:07.214Z,23.47
2022-11-29T21:12:11.184Z,21.12
2022-11-29T21:15:15.200Z,21.08
2022-11-29T21:18:27.388Z,20.65
2022-11-29T21:21:48.799Z,22.47
2022-11-29T21:24:58.161Z,20.40
2022-11-29T21:28:01.225Z,20.00
2022-11-29T21:31:04.670Z,19.92
2022-11-29T21:34:08.605Z,18.75
2022-11-29T21:37:11.544Z,20.83
2022-11-29T21:40:15.984Z,19.80
2022-11-29T21:43:20.702Z,21.37
2022-11-29T21:46:25.369Z,20.20
2022-11-29T21:49:29.316Z,21.33
2022-11-29T21:52:31.819Z,19.57
2022-11-29T21:55:34.738Z,20.50
2022-11-29T21:58:38.746Z,19.08
2022-11-29T22:01:41.824Z,19.05
2022-11-29T22:04:45.569Z,19.65
2022-11-29T22:07:49.488Z,20.40
2022-11-29T22:11:01.006Z,20.80
2022-11-29T22:14:15.741Z,21.92
2022-11-29T22:17:18.635Z,20.65
2022-11-29T22:20:21.512Z,19.52
2022-11-29T22:23:26.712Z,20.87
2022-11-29T22:26:29.440Z,19.77
2022-11-29T22:29:33.518Z,19.85
2022-11-29T22:32:36.077Z,20.25
2022-11-29T22:35:45.390Z,18.50
2022-11-29T22:38:48.044Z,19.10
2022-11-29T22:41:55.033Z,19.42
2022-11-29T22:44:57.884Z,18.48
2022-11-29T22:48:00.826Z,18.55
2022-11-29T22:51:11.934Z,19.45
2022-11-29T22:54:18.156Z,18.47
2022-11-29T22:57:20.809Z,17.87
2022-11-29T23:00:26.365Z,19.37
2022-11-29T23:03:32.522Z,17.73
2022-11-29T23:06:41.028Z,20.05
2022-11-29T23:09:43.891Z,19.30
2022-11-29T23:12:49.754Z,19.27
2022-11-29T23:15:53.017Z,19.85
2022-11-29T23:18:58.360Z,20.23
2022-11-29T23:22:00.967Z,18.80
2022-11-29T23:25:04.112Z,18.53
2022-11-29T23:28:06.747Z,19.63
2022-11-29T23:31:10.910Z,19.48
2022-11-29T23:34:14.485Z,18.87
2022-11-29T23:37:18.457Z,19.33
2022-11-29T23:40:21.126Z,18.87
2022-11-29T23:43:24.498Z,19.23
2022-11-29T23:46:27.130Z,19.27
2022-11-29T23:49:29.971Z,18.37
2022-11-29T23:52:32.826Z,19.37
2022-11-29T23:55:35.674Z,18.33
2022-11-29T23:58:38.606Z,18.60
